Archival Weather

Chicago O'Hare International

Chicago, Illinois (KORD)

Report from: Sunday, March 19, 2023 6:51 PM CDT
Current time: Friday, June 21, 2024 6:45 PM CDT

Current weather – Weather history – Daily summaries
Weather forecast

Temperature2.8°C (37.0°F)
Wind chill-2.0°C (28.5°F)
Dew point-11.1°C (12.0°F)
Winds 12 kts (6.2 m/s, 13.8 mph) Southwest (230°)
Visibility10 mi. (16.1 km)
Clouds Few clouds 25,000 ft. (7,620 m)
Altimeter30.18 in.Hg (1022 mB)
Relative humidity35 %
Density altitude-1,762 ft. (-537 m)
Sea-level pressure102.3 kPa (1023 mB, 30.21 in.Hg)
Max temp last 6 hours4.4°C (39.9°F)
Min temp last 6 hours1.1°C (34.0°F)
Remarks System requires maintenance
Automated weather observing station with precipitation discriminator
Pressure falling more slowly
Flight conditions Visual Meteorological Conditions
Raw dataKORD 192351Z 23012KT 10SM FEW250 03/M11 A3018 RMK AO2 SLP229 T00281111 10044 20011 56009 $
An error has occurred. This application may no longer respond until reloaded. Reload 🗙